Capt. Billy Slatten — WDC3380 — position and weather

sailwx.info

Track history (hours):
 
Tides and Currents Weather Stations Pressure Air Temp Water Temp Dewpoint Dewpoint Depression Visibility Wind Speed Wind Dir Waves Ship Positions

Capt. Billy Slatten

Owner: Bisso Towboat Co., Inc., New Orleans, LA. More information available from US FCC via Universal Licensing System and Coast Guard Vessel Documentation Center.

Last reported at 2014-Oct-25 04:10 UTC. Time now 2014-Oct-25 13:30 UTC.
Position N 29°60' W 090°27'.

Length 30 m; draft 3.5 m.

Type: Tug. MMSI: 367007030.

Date/timePositionNaut miles runAvg speedWind from/ knotsBaromVisibWave heightAir tempDewpointWater temp
2014-Oct-25 04:10N 29°60' W 090°27'8 0.3
2014-Oct-24 02:33N 30°02' W 090°36'  
2014-Oct-21 11:24N 30°03' W 090°33'0 0.0
2014-Oct-21 10:32N 30°03' W 090°33'0 0.0
2014-Oct-21 09:22N 30°03' W 090°33'0 0.0
2014-Oct-21 08:31N 30°03' W 090°33'0 0.0
2014-Oct-21 07:33N 30°03' W 090°33'0 0.0
2014-Oct-21 06:29N 30°03' W 090°33'2 2.3
2014-Oct-21 05:33N 30°03' W 090°36'2 0.4
2014-Oct-21 01:18N 30°03' W 090°34'2 0.2
2014-Oct-20 11:20N 30°03' W 090°36'1 0.7
2014-Oct-20 09:32N 30°03' W 090°35'0 0.1
2014-Oct-20 08:24N 30°03' W 090°35'1 0.0
2014-Oct-19 05:24N 30°03' W 090°36'  
2014-Oct-16 11:32N 30°03' W 090°35'0 0.1
2014-Oct-16 09:17N 30°03' W 090°35'1 0.4
2014-Oct-16 05:07N 30°03' W 090°36'0 0.0
2014-Oct-15 13:17N 30°03' W 090°36'5 6.8
2014-Oct-15 12:33N 30°02' W 090°42'8 8.2
2014-Oct-15 11:33N 30°04' W 090°51'3 1.1
2014-Oct-15 09:11N 30°04' W 090°54'0 0.0
2014-Oct-15 08:29N 30°04' W 090°54'0 0.1
2014-Oct-15 06:18N 30°04' W 090°54'3 4.2
2014-Oct-15 05:31N 30°03' W 090°50'  
Track history (hours):
 
Tides and Currents Weather Stations Pressure Air Temp Water Temp Dewpoint Dewpoint Depression Visibility Wind Speed Wind Dir Waves Ship Positions

Capt. Billy Slatten

Owner: Bisso Towboat Co., Inc., New Orleans, LA. More information available from US FCC via Universal Licensing System and Coast Guard Vessel Documentation Center.

Last reported at 2014-Oct-25 04:10 UTC. Time now 2014-Oct-25 13:30 UTC.
Position N 29°60' W 090°27'.

Length 30 m; draft 3.5 m.

Type: Tug. MMSI: 367007030.

Date/timePositionNaut miles runAvg speedWind from/ knotsBaromVisibWave heightAir tempDewpointWater temp
2014-Oct-25 04:10N 29°60' W 090°27'8 0.3
2014-Oct-24 02:33N 30°02' W 090°36'  
2014-Oct-21 11:24N 30°03' W 090°33'0 0.0
2014-Oct-21 10:32N 30°03' W 090°33'0 0.0
2014-Oct-21 09:22N 30°03' W 090°33'0 0.0
2014-Oct-21 08:31N 30°03' W 090°33'0 0.0
2014-Oct-21 07:33N 30°03' W 090°33'0 0.0
2014-Oct-21 06:29N 30°03' W 090°33'2 2.3
2014-Oct-21 05:33N 30°03' W 090°36'2 0.4
2014-Oct-21 01:18N 30°03' W 090°34'2 0.2
2014-Oct-20 11:20N 30°03' W 090°36'1 0.7
2014-Oct-20 09:32N 30°03' W 090°35'0 0.1
2014-Oct-20 08:24N 30°03' W 090°35'1 0.0
2014-Oct-19 05:24N 30°03' W 090°36'  
2014-Oct-16 11:32N 30°03' W 090°35'0 0.1
2014-Oct-16 09:17N 30°03' W 090°35'1 0.4
2014-Oct-16 05:07N 30°03' W 090°36'0 0.0
2014-Oct-15 13:17N 30°03' W 090°36'5 6.8
2014-Oct-15 12:33N 30°02' W 090°42'8 8.2
2014-Oct-15 11:33N 30°04' W 090°51'3 1.1
2014-Oct-15 09:11N 30°04' W 090°54'0 0.0
2014-Oct-15 08:29N 30°04' W 090°54'0 0.1
2014-Oct-15 06:18N 30°04' W 090°54'3 4.2
2014-Oct-15 05:31N 30°03' W 090°50'  

Dump ship's entire track history